^^
Anthem North Phoenix Station Historical Data
 
Daily Summary for August 18, 2018 Units:  English    Metric   Both
Daily Weekly Monthly Yearly Custom
  Current: High: Low: Average:
Temperature: 97 °F 102 °F 80.9 °F 86.5 °F
Dew Point: 65.6 °F 67.3 °F 63.6 °F 64.6 °F
Humidity: 36% 57% 30% 49%
Wind Speed: 2mph 8mph 0.3mph 3.3mph
Wind Gust: 6mph 13mph - -
WindNNE - - SE
Pressure: 29.83 in 30.01 in 29.83 in -
Precipitation: 0 in      
Historical Graphs
 
 
Tabular Data for August 18, 2018
Time Temperature Dew Point Pressure Wind Wind Speed Wind Gust Humidity Rainfall Rate (Hourly)
00:04 85.1 °F 64.9 °F 29.97 in NNW 2.8 mph 3.5 mph 51% 0 in
00:09 85.2 °F 65 °F 29.97 in NNE 3.8 mph 3.5 mph 51% 0 in
00:14 85.4 °F 64.6 °F 29.97 in NE 3.9 mph 4.6 mph 50% 0 in
00:19 85.4 °F 64.6 °F 29.97 in NNE 3.1 mph 3.5 mph 50% 0 in
00:24 85.3 °F 64.6 °F 29.97 in NNE 2.4 mph 4 mph 50% 0 in
00:29 85.1 °F 64.4 °F 29.97 in NNE 2.6 mph 3.5 mph 50% 0 in
00:34 84.8 °F 64.7 °F 29.97 in North 2.6 mph 3.5 mph 51% 0 in
00:39 84.8 °F 64.7 °F 29.97 in NNE 3.1 mph 4 mph 51% 0 in
00:44 84.6 °F 64.5 °F 29.97 in North 3.1 mph 3.5 mph 51% 0 in
00:49 84.5 °F 64.9 °F 29.97 in NNE 1.3 mph 3.5 mph 52% 0 in
00:54 84.4 °F 64.9 °F 29.97 in NE 3 mph 3.5 mph 52% 0 in
00:59 84.2 °F 64.7 °F 29.97 in NE 3.3 mph 4.6 mph 52% 0 in
01:04 84.2 °F 64.7 °F 29.96 in NNE 3 mph 4.6 mph 52% 0 in
01:09 84.2 °F 64.7 °F 29.97 in NE 2.1 mph 4.6 mph 52% 0 in
01:14 84 °F 64.5 °F 29.97 in North 1.3 mph 2.3 mph 52% 0 in
01:19 83.9 °F 64.4 °F 29.96 in NNE 3.4 mph 3.5 mph 52% 0 in
01:24 83.9 °F 64.9 °F 29.96 in NE 4.7 mph 6.9 mph 53% 0 in
01:29 83.8 °F 64.8 °F 29.96 in NNW 3.1 mph 5.8 mph 53% 0 in
01:34 83.8 °F 64.8 °F 29.96 in NNW 3.4 mph 4.6 mph 53% 0 in
01:39 83.5 °F 64.6 °F 29.96 in NNE 3.4 mph 4.6 mph 53% 0 in
01:44 83.4 °F 65 °F 29.96 in North 4.2 mph 5.8 mph 54% 0 in
01:49 83.3 °F 64.9 °F 29.96 in North 2.9 mph 3.5 mph 54% 0 in
01:54 83.2 °F 64.8 °F 29.96 in NE 6.5 mph 5.8 mph 54% 0 in
01:59 83.1 °F 64.7 °F 29.96 in NE 5.8 mph 10.4 mph 54% 0 in
02:04 82.9 °F 65.1 °F 29.96 in NNW 6 mph 11.5 mph 55% 0 in
02:09 82.7 °F 64.9 °F 29.96 in NW 4.1 mph 4.6 mph 55% 0 in
02:14 82.7 °F 64.9 °F 29.96 in ENE 3.9 mph 6.9 mph 55% 0 in
02:19 82.7 °F 64.9 °F 29.96 in NW 4.3 mph 6.9 mph 55% 0 in
02:24 82.8 °F 65 °F 29.96 in North 4.3 mph 8.1 mph 55% 0 in
02:29 82.8 °F 64.5 °F 29.96 in NNE 2.9 mph 5.8 mph 54% 0 in
02:34 82.8 °F 65 °F 29.96 in NW 5.4 mph 9.2 mph 55% 0 in
02:39 82.7 °F 64.9 °F 29.96 in North 5.3 mph 6.9 mph 55% 0 in
02:44 82.6 °F 64.8 °F 29.96 in North 1.9 mph 3.5 mph 55% 0 in
02:49 82.6 °F 64.3 °F 29.96 in NNE 4 mph 4.6 mph 54% 0 in
02:54 82.6 °F 64.3 °F 29.96 in NNW 3.2 mph 4.6 mph 54% 0 in
02:59 82.6 °F 64.3 °F 29.96 in North 2.9 mph 5.8 mph 54% 0 in
03:04 82.5 °F 64.2 °F 29.96 in NNE 2.2 mph 3.5 mph 54% 0 in
03:09 82.5 °F 64.7 °F 29.96 in North 1.8 mph 3.5 mph 55% 0 in
03:14 82.3 °F 64.5 °F 29.96 in NNE 2.5 mph 3.5 mph 55% 0 in
03:19 82.3 °F 64.5 °F 29.96 in NNE 2.1 mph 3.5 mph 55% 0 in
03:24 82.3 °F 64.5 °F 29.96 in NNE 1.6 mph 5.8 mph 55% 0 in
03:29 82.3 °F 64.5 °F 29.96 in North 1.6 mph 3.5 mph 55% 0 in
03:34 82.1 °F 64.3 °F 29.96 in NNE 2.3 mph 3.5 mph 55% 0 in
03:39 82 °F 64.2 °F 29.97 in NNE 0.3 mph 1.2 mph 55% 0 in
03:44 81.9 °F 64.7 °F 29.97 in NNE 0.6 mph 1.2 mph 56% 0 in
03:49 81.7 °F 64.5 °F 29.96 in North 1.6 mph 3.5 mph 56% 0 in
03:54 81.7 °F 64.5 °F 29.97 in North 2.3 mph 3.5 mph 56% 0 in
03:59 81.8 °F 64.6 °F 29.97 in North 1.5 mph 2.3 mph 56% 0 in
04:04 81.7 °F 64.5 °F 29.96 in NNE 1.2 mph 2.3 mph 56% 0 in
04:09 81.5 °F 64.3 °F 29.97 in NNE 1.1 mph 4.6 mph 56% 0 in
04:14 81.4 °F 64.2 °F 29.97 in NNW 3.4 mph 4.6 mph 56% 0 in
04:19 81.3 °F 64.6 °F 29.97 in NE 1 mph 3.5 mph 57% 0 in
04:24 81.3 °F 64.1 °F 29.97 in NNW 3.4 mph 4.6 mph 56% 0 in
04:29 81.5 °F 64.3 °F 29.97 in NNE 2.2 mph 3.5 mph 56% 0 in
04:34 81.4 °F 64.2 °F 29.97 in North 1.9 mph 3.5 mph 56% 0 in
04:39 81.4 °F 64.2 °F 29.97 in NNE 3.9 mph 4.6 mph 56% 0 in
04:44 81.3 °F 64.1 °F 29.97 in NNE 2.3 mph 3.5 mph 56% 0 in
04:49 81.3 °F 64.1 °F 29.97 in NNE 4.3 mph 9.2 mph 56% 0 in
04:54 81.4 °F 64.2 °F 29.97 in NNE 6.2 mph 6.9 mph 56% 0 in
04:59 81.3 °F 64.1 °F 29.97 in NNW 3.6 mph 6.9 mph 56% 0 in
05:04 81.2 °F 64 °F 29.97 in North 2.2 mph 3.5 mph 56% 0 in
05:09 81.1 °F 63.9 °F 29.97 in NNE 2.9 mph 3.5 mph 56% 0 in
05:14 81.1 °F 63.9 °F 29.97 in NE 4.1 mph 5.8 mph 56% 0 in
05:19 81.2 °F 64 °F 29.97 in NNW 3.1 mph 3.5 mph 56% 0 in
05:24 81.2 °F 64 °F 29.97 in North 3 mph 3.5 mph 56% 0 in
05:29 81.1 °F 63.9 °F 29.97 in North 4.9 mph 6.9 mph 56% 0 in
05:34 81.2 °F 64 °F 29.97 in North 1.7 mph 5.8 mph 56% 0 in
05:39 81.1 °F 63.9 °F 29.98 in NNE 2.9 mph 4.6 mph 56% 0 in
05:44 81.1 °F 63.9 °F 29.98 in NNE 2.2 mph 5.8 mph 56% 0 in
05:49 81 °F 63.8 °F 29.98 in NE 5.1 mph 6.9 mph 56% 0 in
05:54 81.1 °F 63.9 °F 29.98 in North 3.6 mph 3.5 mph 56% 0 in
05:59 81 °F 63.8 °F 29.99 in NNE 4.7 mph 5.8 mph 56% 0 in
06:04 81 °F 63.8 °F 29.98 in NNE 4.4 mph 8.1 mph 56% 0 in
06:09 80.9 °F 63.7 °F 29.99 in North 3 mph 3.5 mph 56% 0 in
06:14 81 °F 63.8 °F 29.99 in NE 2.5 mph 3.5 mph 56% 0 in
06:19 81 °F 63.8 °F 29.99 in North 2.7 mph 4.6 mph 56% 0 in
06:24 81.2 °F 64 °F 30.00 in NNW 3.3 mph 4.6 mph 56% 0 in
06:29 81.3 °F 63.6 °F 30.00 in North 3.9 mph 5.8 mph 55% 0 in
06:34 81.2 °F 64 °F 30.00 in NNW 1.8 mph 3.5 mph 56% 0 in
06:39 81.2 °F 64 °F 30.00 in North 4.1 mph 3.5 mph 56% 0 in
06:44 81.3 °F 64.1 °F 30.00 in North 2.2 mph 3.5 mph 56% 0 in
06:49 81.4 °F 64.2 °F 30.00 in NNE 1.3 mph 2.3 mph 56% 0 in
06:54 81.5 °F 64.3 °F 30.00 in North 1.2 mph 3.5 mph 56% 0 in
06:59 81.7 °F 64.5 °F 30.00 in North 1.5 mph 2.3 mph 56% 0 in
07:04 81.9 °F 64.1 °F 30.00 in NNE 1 mph   55% 0 in
07:09 82.2 °F 64.4 °F 30.00 in NNE 2.6 mph 3.5 mph 55% 0 in
07:14 82.5 °F 64.2 °F 30.00 in NNE 4.1 mph 5.8 mph 54% 0 in
07:19 82.9 °F 64 °F 30.01 in NNW 4.1 mph 4.6 mph 53% 0 in
07:24 83.3 °F 64.9 °F 30.01 in NNE 1.1 mph 2.3 mph 54% 0 in
07:29 83.8 °F 64.8 °F 30.01 in NNE 3.3 mph 3.5 mph 53% 0 in
07:34 84.5 °F 64.9 °F 30.00 in NNW 2.6 mph 6.9 mph 52% 0 in
07:39 85.4 °F 65.2 °F 30.01 in North 1.4 mph 2.3 mph 51% 0 in
07:44 86.1 °F 64.7 °F 30.01 in NNE 2.4 mph 3.5 mph 49% 0 in
07:49 86.6 °F 64.6 °F 30.01 in NNE 3.1 mph 3.5 mph 48% 0 in
07:54 86.9 °F 64.8 °F 30.01 in NNE 3.7 mph 3.5 mph 48% 0 in
07:59 87.2 °F 64.5 °F 30.01 in NNW 5.5 mph 6.9 mph 47% 0 in
08:04 87.7 °F 65 °F 30.01 in NNE 4.1 mph 8.1 mph 47% 0 in
08:09 88.2 °F 64.8 °F 30.01 in NNE 3.7 mph 4.6 mph 46% 0 in
08:14 88.6 °F 65.2 °F 30.01 in North 4.4 mph 4.6 mph 46% 0 in
08:19 89.1 °F 65 °F 30.01 in NNW 2.2 mph 3.5 mph 45% 0 in
08:24 89.7 °F 64.9 °F 30.01 in NNE 3.4 mph 3.5 mph 44% 0 in
08:29 90 °F 65.2 °F 30.01 in North 1.7 mph 3.5 mph 44% 0 in
08:34 90.4 °F 64.9 °F 30.01 in NNW 1.4 mph 3.5 mph 43% 0 in
08:37 90.7 °F 65.1 °F 30.00 in NE 1.3 mph 3.5 mph 43% 0 in
16:29 101.6 °F 65.3 °F 29.84 in SW 6.8 mph 8.1 mph 31% 0 in
16:31 101.6 °F 65.3 °F 29.84 in SE 6.9 mph 11.5 mph 31% 0 in
16:35 102 °F 65.6 °F 29.83 in SSW 6 mph 10 mph 31% 0 in
16:40 101.7 °F 64.5 °F 29.83 in SSW 5 mph 13 mph 30% 0 in
16:45 101.6 °F 65.3 °F 29.84 in SSW 6 mph 12 mph 31% 0 in
16:50 101.4 °F 65.1 °F 29.83 in SW 8 mph 12 mph 31% 0 in
16:55 101.6 °F 64.4 °F 29.83 in WSW 2 mph 10 mph 30% 0 in
17:00 101.7 °F 64.5 °F 29.83 in SW 6 mph 13 mph 30% 0 in
17:05 101.6 °F 65.3 °F 29.84 in SSW 6 mph 10 mph 31% 0 in
17:10 101.8 °F 65.5 °F 29.84 in SSW 5 mph 12 mph 31% 0 in
17:15 101.5 °F 64.3 °F 29.84 in SSW 2 mph 12 mph 30% 0 in
17:20 101.5 °F 64.3 °F 29.84 in SW 3 mph 7 mph 30% 0 in
17:25 101.7 °F 64.5 °F 29.84 in SW 5 mph 12 mph 30% 0 in
17:30 101.4 °F 65.2 °F 29.84 in SW 7 mph 13 mph 31% 0 in
17:35 101 °F 64.8 °F 29.84 in SSW 3 mph 8 mph 31% 0 in
17:40 100.7 °F 64.5 °F 29.84 in SW 2 mph 8 mph 31% 0 in
17:45 99.3 °F 65.1 °F 29.84 in North 7 mph 13 mph 33% 0 in
17:50 97.2 °F 67.3 °F 29.84 in NNE 6 mph 13 mph 38% 0 in
17:55 95.9 °F 67 °F 29.84 in NNE 3 mph 8 mph 39% 0 in
18:00 95.9 °F 66.9 °F 29.83 in NNE 3 mph 6 mph 39% 0 in
18:05 96.8 °F 65.4 °F 29.83 in NNE 2 mph 5 mph 36% 0 in
18:10 97.2 °F 65.8 °F 29.83 in North 6 mph 8 mph 36% 0 in
18:15 97.6 °F 65.3 °F 29.83 in North 3 mph 5 mph 35% 0 in
18:20 97.3 °F 66.7 °F 29.83 in NNE 5 mph 6 mph 37% 0 in
18:25 97 °F 65.6 °F 29.83 in NNE 2 mph 6 mph 36% 0 in
Anthen North Phoenix Weather
Compliments of Weather Underground - 1.5 mb